OEJN/JED METAR and TAF weather

Enter ICAO airport designator
Station Type Date Time Source
OEJN METAR 2020/04/04 11:00 UTC NOAA

OEJN 041100Z 30012KT CAVOK 32/19 Q1010 NOSIG


Station Type Date Time Source
OEJN Decoded METAR 2020/04/04 11:00 UTC NOAA

Jeddah King Abdul Aziz International Airport , Saudi Arabia (OEJN) 21-42N 039-11E 17M
Apr 04, 2020 - 07:00 AM EDT / 2020.04.04 1100 UTC
Wind: from the WNW (300 degrees) at 14 MPH (12 KT):0
Visibility: greater than 7 mile(s):0
Temperature: 89 F (32 C)
Dew Point: 66 F (19 C)
Relative Humidity: 46%
Pressure (altimeter): 29.83 in. Hg (1010 hPa)
ob: OEJN 041100Z 30012KT CAVOK 32/19 Q1010 NOSIG
cycle: 11

Station Type Date Time Source
OEJN TAF 2020/04/04 12:00 UTC NOAA

TAF OEJN 041100Z 0412/0518 33013KT CAVOK
BECMG 0418/0420 02008KT
BECMG 0506/0508 25015KT

Example: see airport list